createdAt,value
2023-03-04T00:02:07.391Z,28.85
2023-03-04T00:04:33.731Z,34.40
2023-03-04T00:07:00.087Z,36.25
2023-03-04T00:09:26.753Z,36.15
2023-03-04T00:11:53.370Z,35.38
2023-03-04T00:14:19.828Z,35.85
2023-03-04T00:16:46.332Z,39.38
2023-03-04T00:19:12.874Z,32.10
2023-03-04T00:21:39.299Z,30.55
2023-03-04T00:24:06.668Z,35.45
2023-03-04T00:26:33.107Z,27.25
2023-03-04T00:28:59.739Z,23.80
2023-03-04T00:31:26.182Z,31.60
2023-03-04T00:33:52.548Z,37.55
2023-03-04T00:36:18.880Z,28.55
2023-03-04T00:38:45.289Z,36.72
2023-03-04T00:41:11.726Z,28.15
2023-03-04T00:43:38.069Z,32.70
2023-03-04T00:46:04.784Z,38.63
2023-03-04T00:48:31.332Z,39.17
2023-03-04T00:50:57.747Z,39.58
2023-03-04T00:53:24.187Z,34.40
2023-03-04T00:55:50.709Z,45.42
2023-03-04T00:58:17.396Z,30.00
2023-03-04T01:00:43.877Z,47.15
2023-03-04T01:03:10.384Z,33.58
2023-03-04T01:05:36.823Z,31.30
2023-03-04T01:08:03.845Z,33.63
2023-03-04T01:10:30.380Z,28.80
2023-03-04T01:12:56.973Z,43.78
2023-03-04T01:15:23.598Z,36.83
2023-03-04T01:17:50.097Z,34.72
2023-03-04T01:20:16.842Z,41.58
2023-03-04T01:22:43.415Z,33.25
2023-03-04T01:25:10.695Z,30.35
2023-03-04T01:27:37.071Z,31.58
2023-03-04T01:30:04.695Z,31.30
2023-03-04T01:32:31.166Z,32.33
2023-03-04T01:34:57.580Z,30.83
2023-03-04T01:37:24.044Z,41.55
2023-03-04T01:39:50.398Z,34.75
2023-03-04T01:42:22.331Z,38.10
2023-03-04T01:44:49.526Z,39.55
2023-03-04T01:47:16.253Z,37.05
2023-03-04T01:49:42.705Z,37.28
2023-03-04T01:52:13.906Z,32.78
2023-03-04T01:54:41.116Z,31.40
2023-03-04T01:57:17.358Z,32.10
2023-03-04T01:59:43.767Z,30.00
2023-03-04T02:02:10.726Z,30.95
2023-03-04T02:04:37.383Z,37.13
2023-03-04T02:07:04.278Z,35.30
2023-03-04T02:09:31.680Z,30.88
2023-03-04T02:11:58.393Z,35.05
2023-03-04T02:14:24.872Z,31.77
2023-03-04T02:16:51.636Z,29.05
2023-03-04T02:19:39.454Z,29.70
2023-03-04T02:22:05.983Z,28.58
2023-03-04T02:24:39.538Z,30.25
2023-03-04T02:27:05.918Z,31.85
2023-03-04T02:29:32.465Z,31.83
2023-03-04T02:31:58.906Z,26.17
2023-03-04T02:34:33.484Z,26.25
2023-03-04T02:37:00.632Z,28.50
2023-03-04T02:39:36.134Z,29.38
2023-03-04T02:42:03.605Z,32.13
2023-03-04T02:44:32.095Z,33.80
2023-03-04T02:46:59.202Z,26.02
2023-03-04T02:49:27.488Z,33.75
2023-03-04T02:52:09.363Z,39.50
2023-03-04T02:54:37.912Z,34.08
2023-03-04T02:57:09.318Z,30.45
2023-03-04T02:59:37.110Z,31.52
2023-03-04T03:02:03.794Z,26.23
2023-03-04T03:04:30.354Z,24.40
2023-03-04T03:06:56.736Z,33.60
2023-03-04T03:09:23.402Z,32.35
2023-03-04T03:11:50.025Z,36.95
2023-03-04T03:14:16.654Z,30.45
2023-03-04T03:16:43.355Z,26.77
2023-03-04T03:19:09.978Z,26.52
2023-03-04T03:21:36.564Z,20.80
2023-03-04T03:24:02.958Z,28.23
2023-03-04T03:26:29.376Z,27.65
2023-03-04T03:28:55.732Z,26.50
2023-03-04T03:31:22.240Z,24.92
2023-03-04T03:33:48.638Z,15.90
2023-03-04T03:36:15.044Z,28.10
2023-03-04T03:38:41.494Z,31.90
2023-03-04T03:41:07.902Z,24.98
2023-03-04T03:43:34.344Z,24.15
2023-03-04T03:46:01.942Z,17.63
2023-03-04T03:48:28.406Z,26.55
2023-03-04T03:50:54.773Z,31.15
2023-03-04T03:53:21.266Z,24.67
2023-03-04T03:55:47.673Z,26.42
2023-03-04T03:58:14.349Z,25.80
2023-03-04T04:00:40.666Z,29.73
2023-03-04T04:03:07.391Z,31.40
2023-03-04T04:05:33.796Z,40.15
2023-03-04T04:08:00.261Z,27.75
2023-03-04T04:10:26.834Z,27.92
2023-03-04T04:12:53.226Z,27.40
2023-03-04T04:15:19.716Z,28.95
2023-03-04T04:17:46.058Z,25.58
2023-03-04T04:20:12.805Z,26.73
2023-03-04T04:22:39.235Z,34.80
2023-03-04T04:25:06.289Z,30.52
2023-03-04T04:27:32.682Z,30.38
2023-03-04T04:29:59.110Z,35.45
2023-03-04T04:32:25.581Z,30.63
2023-03-04T04:34:52.112Z,28.05
2023-03-04T04:37:18.561Z,26.73
2023-03-04T04:39:44.978Z,30.63
2023-03-04T04:42:11.538Z,23.52
2023-03-04T04:44:38.956Z,35.47
2023-03-04T04:47:07.275Z,28.65
2023-03-04T04:52:00.513Z,29.42
2023-03-04T04:54:26.945Z,26.33
2023-03-04T04:56:53.638Z,28.75
2023-03-04T04:59:20.160Z,32.47
2023-03-04T05:01:46.520Z,31.65
2023-03-04T05:04:13.041Z,33.50
2023-03-04T05:06:39.494Z,31.17
2023-03-04T05:09:06.251Z,26.20
2023-03-04T05:11:33.775Z,30.17
2023-03-04T05:14:00.291Z,26.95
2023-03-04T05:16:26.693Z,25.33
2023-03-04T05:18:53.285Z,29.15
2023-03-04T05:21:19.855Z,32.72
2023-03-04T05:23:46.312Z,27.40
2023-03-04T05:26:15.674Z,27.58
2023-03-04T05:28:42.603Z,24.38
2023-03-04T05:31:09.294Z,27.98
2023-03-04T05:33:36.324Z,26.45
2023-03-04T05:36:04.913Z,26.27
2023-03-04T05:38:31.560Z,30.48
2023-03-04T05:40:59.547Z,32.65
2023-03-04T05:43:27.846Z,27.23
2023-03-04T05:48:21.387Z,26.17
2023-03-04T05:50:47.743Z,32.50
2023-03-04T05:53:15.345Z,33.85
2023-03-04T05:55:47.199Z,30.17
2023-03-04T05:58:13.988Z,30.88
2023-03-04T06:00:40.516Z,30.73
2023-03-04T06:03:06.944Z,32.55
2023-03-04T06:05:33.416Z,24.02
2023-03-04T06:07:59.746Z,27.25
2023-03-04T06:10:26.100Z,28.67
2023-03-04T06:12:52.801Z,32.03
2023-03-04T06:15:23.417Z,31.73
2023-03-04T06:17:50.045Z,33.45
2023-03-04T06:20:16.692Z,31.30
2023-03-04T06:22:43.321Z,28.13
2023-03-04T06:25:10.116Z,26.40
2023-03-04T06:27:36.816Z,27.67
2023-03-04T06:30:03.937Z,33.22
2023-03-04T06:32:30.434Z,29.15
2023-03-04T06:34:57.085Z,30.65
2023-03-04T06:37:23.890Z,22.83
2023-03-04T06:39:50.426Z,29.45
2023-03-04T06:42:17.008Z,29.73
2023-03-04T06:44:43.695Z,29.48
2023-03-04T06:47:10.192Z,30.80
2023-03-04T06:49:36.592Z,29.58
2023-03-04T06:52:03.341Z,26.52
2023-03-04T06:54:30.122Z,28.73
2023-03-04T06:56:56.815Z,30.40
2023-03-04T06:59:23.617Z,33.17
2023-03-04T07:01:50.158Z,28.80
2023-03-04T07:04:16.650Z,29.30
2023-03-04T07:06:43.304Z,28.08
2023-03-04T07:09:09.981Z,26.42
2023-03-04T07:11:36.485Z,29.23
2023-03-04T07:14:03.207Z,30.15
2023-03-04T07:16:29.682Z,24.77
2023-03-04T07:18:56.164Z,30.40
2023-03-04T07:21:22.997Z,33.90
2023-03-04T07:23:52.646Z,29.98
2023-03-04T07:26:19.057Z,32.60
2023-03-04T07:28:45.685Z,31.45
2023-03-04T07:31:27.615Z,23.75
2023-03-04T07:33:57.451Z,28.73
2023-03-04T07:36:24.110Z,35.58
2023-03-04T07:38:51.335Z,37.45
2023-03-04T07:41:18.383Z,30.38
2023-03-04T07:43:45.239Z,34.05
2023-03-04T07:46:14.890Z,31.05
2023-03-04T07:48:41.503Z,29.20
2023-03-04T07:51:15.285Z,25.90
2023-03-04T07:53:44.024Z,29.13
2023-03-04T07:56:17.731Z,27.55
2023-03-04T07:58:44.571Z,33.63
2023-03-04T08:01:38.431Z,30.63
2023-03-04T08:06:32.892Z,31.35
2023-03-04T08:09:01.991Z,24.95
2023-03-04T08:11:29.929Z,25.92
2023-03-04T08:13:56.835Z,24.17
2023-03-04T08:16:24.326Z,28.65
2023-03-04T08:18:53.814Z,31.80
2023-03-04T08:21:21.643Z,30.77
2023-03-04T08:23:48.704Z,36.40
2023-03-04T08:26:18.172Z,27.17
2023-03-04T08:28:45.867Z,23.83
2023-03-04T08:31:17.177Z,29.17
2023-03-04T08:33:43.955Z,24.90
2023-03-04T08:36:10.891Z,25.17
2023-03-04T08:38:37.314Z,27.80
2023-03-04T08:41:04.296Z,31.80
2023-03-04T08:43:30.688Z,21.88
2023-03-04T08:45:57.248Z,16.83
2023-03-04T08:48:24.141Z,20.27
2023-03-04T08:50:50.903Z,20.40
2023-03-04T08:53:18.388Z,28.85
2023-03-04T08:55:45.201Z,23.23
2023-03-04T08:58:12.281Z,21.83
2023-03-04T09:00:42.878Z,17.73
2023-03-04T09:03:11.920Z,25.85
2023-03-04T09:05:39.031Z,17.63
2023-03-04T09:08:05.625Z,16.27
2023-03-04T09:10:31.976Z,22.20
2023-03-04T09:12:59.113Z,23.35
2023-03-04T09:15:25.496Z,18.20
2023-03-04T09:17:51.829Z,17.00
2023-03-04T09:20:18.419Z,22.02
2023-03-04T09:22:44.790Z,20.13
2023-03-04T09:25:14.717Z,11.57
2023-03-04T09:27:41.423Z,17.23
2023-03-04T09:30:08.869Z,18.33
2023-03-04T09:32:35.584Z,15.13
2023-03-04T09:35:02.133Z,13.20
2023-03-04T09:37:28.670Z,13.50
2023-03-04T09:39:55.052Z,13.27
2023-03-04T09:42:32.543Z,12.98
2023-03-04T09:44:59.249Z,15.52
2023-03-04T09:47:26.453Z,13.73
2023-03-04T09:50:03.886Z,15.15
2023-03-04T09:52:55.251Z,19.63
2023-03-04T09:55:25.321Z,16.73
2023-03-04T09:58:09.510Z,14.63
2023-03-04T10:00:40.023Z,15.00
2023-03-04T10:03:13.082Z,12.60
2023-03-04T10:05:44.800Z,19.73
2023-03-04T10:08:22.943Z,12.55
2023-03-04T10:10:49.598Z,13.50
2023-03-04T10:13:20.307Z,8.20
2023-03-04T10:15:48.589Z,13.98
2023-03-04T10:18:22.529Z,10.27
2023-03-04T10:20:54.133Z,14.05
2023-03-04T10:23:26.074Z,9.80
2023-03-04T10:25:54.204Z,9.90
2023-03-04T10:28:29.611Z,14.68
2023-03-04T10:31:06.920Z,17.42
2023-03-04T10:33:40.703Z,9.00
2023-03-04T10:36:31.219Z,12.43
2023-03-04T10:39:31.713Z,15.38
2023-03-04T10:42:00.995Z,13.65
2023-03-04T10:44:28.161Z,6.35
2023-03-04T10:46:56.152Z,10.65
2023-03-04T10:49:24.797Z,13.60
2023-03-04T10:52:02.734Z,11.35
2023-03-04T10:54:33.106Z,3.22
2023-03-04T10:57:16.446Z,15.73
2023-03-04T10:59:50.741Z,15.20
2023-03-04T11:02:37.889Z,9.55
2023-03-04T11:05:24.646Z,10.02
2023-03-04T11:07:56.146Z,10.43
2023-03-04T11:10:35.686Z,7.60
2023-03-04T11:13:09.243Z,16.17
2023-03-04T11:15:51.628Z,9.30
2023-03-04T11:18:24.209Z,8.18
2023-03-04T11:20:50.982Z,8.40
2023-03-04T11:23:19.667Z,12.05
2023-03-04T11:26:01.655Z,3.80
2023-03-04T11:28:54.005Z,9.27
2023-03-04T11:31:24.460Z,9.57
2023-03-04T11:33:58.143Z,9.73
2023-03-04T11:36:57.326Z,7.63
2023-03-04T11:39:35.987Z,6.43
2023-03-04T11:42:22.737Z,6.70
2023-03-04T11:44:49.296Z,6.32
2023-03-04T11:47:23.356Z,10.43
2023-03-04T11:49:55.767Z,12.38
2023-03-04T11:52:45.565Z,7.80
2023-03-04T11:55:29.947Z,7.95
2023-03-04T11:58:05.620Z,12.38
2023-03-04T12:00:40.507Z,10.02
2023-03-04T12:03:22.316Z,5.43
2023-03-04T12:06:00.904Z,7.97
2023-03-04T12:08:39.369Z,5.45
2023-03-04T12:11:11.177Z,8.68
2023-03-04T12:13:48.096Z,6.53
2023-03-04T12:16:26.306Z,3.10
2023-03-04T12:19:12.134Z,11.13
2023-03-04T12:21:51.415Z,6.43
2023-03-04T12:24:30.384Z,6.78
2023-03-04T12:27:33.204Z,7.45
2023-03-04T12:30:17.219Z,7.38
2023-03-04T12:33:05.798Z,9.80
2023-03-04T12:36:03.088Z,9.35
2023-03-04T12:38:42.024Z,9.15
2023-03-04T12:41:30.269Z,9.05
2023-03-04T12:44:19.308Z,6.50
2023-03-04T12:47:15.185Z,4.03
